Terminal Aerodrome Forecast
Issued by NWS Cleveland, OH

Home | Current Version | Previous Version | Graphics & Text | Print | Product List | Glossary On
Versions: 1 2 3 4 5 6 7 8 9 10 11 12 13 14 15 16 17 18 19
000
FTUS41 KCLE 031700
TAFYNG
TAF
KYNG 031730Z 0318/0418 22007KT P6SM SCT080
     FM040000 19005KT P6SM SCT250
     FM041000 17007KT P6SM SCT100 BKN250
     FM041500 21011KT P6SM SCT045 BKN250=

USA.gov is the U.S. government's official web portal to all federal, state and local government web resources and services.